Time;durP1;ratioP1;P1;durP2;ratioP2;P2;SDS_P1;SDS_P2;PMS_P1;PMS_P2;Temp;Humidity;BMP_temperature;BMP_pressure;BME280_temperature;BME280_humidity;BME280_pressure;Samples;Min_cycle;Max_cycle;Signal;HPM_P1;HPM_P2
2021/04/03 00:08:28;;;;;;;4.38;2.55;;;14.70;72.60;;;;;;20752151;28;20113;-60
2021/04/03 00:18:29;;;;;;;3.60;2.63;;;14.50;72.90;;;;;;20751813;28;20038;-59
2021/04/03 00:28:30;;;;;;;4.13;3.10;;;14.50;73.00;;;;;;20750999;28;20049;-58
2021/04/03 00:38:31;;;;;;;5.45;3.13;;;14.40;72.80;;;;;;20750694;28;20042;-59
2021/04/03 00:48:32;;;;;;;6.40;4.13;;;14.40;73.20;;;;;;20749436;28;20126;-60
2021/04/03 00:58:33;;;;;;;5.10;3.28;;;14.30;73.80;;;;;;20749311;28;20037;-58
2021/04/03 01:08:34;;;;;;;5.03;3.95;;;14.20;74.30;;;;;;20749584;28;20033;-58
2021/04/03 01:18:59;;;;;;;4.85;3.50;;;14.10;74.00;;;;;;20747355;28;20030;-58
2021/04/03 01:29:23;;;;;;;5.85;3.42;;;13.90;74.00;;;;;;20748063;28;20053;-59
2021/04/03 01:39:27;;;;;;;7.83;4.30;;;13.60;75.10;;;;;;20748200;28;20030;-59
2021/04/03 01:49:29;;;;;;;6.22;4.10;;;13.50;75.50;;;;;;20747452;28;20121;-58
2021/04/03 01:59:30;;;;;;;7.22;4.10;;;13.50;74.90;;;;;;20752652;28;20026;-58
2021/04/03 02:09:31;;;;;;;4.15;3.60;;;13.50;74.30;;;;;;20762801;28;20516;-58
2021/04/03 02:19:34;;;;;;;6.10;4.10;;;13.30;74.90;;;;;;20761858;28;20030;-58
2021/04/03 02:29:35;;;;;;;4.57;3.60;;;13.10;75.00;;;;;;20760541;28;20061;-59
2021/04/03 02:39:36;;;;;;;4.88;3.70;;;12.80;75.80;;;;;;20760062;28;20418;-58
2021/04/03 02:49:49;;;;;;;5.45;3.75;;;12.80;75.20;;;;;;20759365;28;20492;-60
2021/04/03 02:59:55;;;;;;;5.10;3.95;;;12.70;75.30;;;;;;20758435;28;20022;-61
2021/04/03 03:09:56;;;;;;;5.93;4.63;;;12.60;75.40;;;;;;20757214;28;20046;-58
2021/04/03 03:20:00;;;;;;;5.43;4.88;;;12.50;75.70;;;;;;20756864;28;20025;-58
2021/04/03 03:30:03;;;;;;;5.77;4.77;;;13.00;74.00;;;;;;20755691;28;20061;-58
2021/04/03 03:40:05;;;;;;;5.63;4.80;;;12.40;75.30;;;;;;20754859;28;20068;-58
2021/04/03 03:50:07;;;;;;;5.50;4.50;;;12.30;75.00;;;;;;20754545;28;20081;-57
2021/04/03 04:00:09;;;;;;;5.85;4.60;;;12.20;74.80;;;;;;20753934;28;20018;-57
2021/04/03 04:10:12;;;;;;;8.30;4.60;;;12.10;75.10;;;;;;20752731;28;20425;-57
2021/04/03 04:20:13;;;;;;;5.38;4.20;;;12.00;75.10;;;;;;20752066;28;20018;-58
2021/04/03 04:30:15;;;;;;;6.75;4.25;;;12.00;74.90;;;;;;20751143;28;20053;-55
2021/04/03 04:40:16;;;;;;;10.48;4.68;;;12.30;72.80;;;;;;20750716;28;20076;-58
2021/04/03 04:50:17;;;;;;;6.57;4.25;;;11.70;75.00;;;;;;20750420;28;20537;-58
2021/04/03 05:00:18;;;;;;;5.05;4.35;;;;;;;;;;20748133;28;20040;-60
2021/04/03 05:10:19;;;;;;;8.02;4.68;;;11.50;74.90;;;;;;20749280;28;20092;-59
2021/04/03 05:20:20;;;;;;;8.65;6.03;;;;;;;;;;20748915;28;20026;-55
2021/04/03 05:30:22;;;;;;;10.65;6.22;;;11.30;76.00;;;;;;20748381;28;20062;-59
2021/04/03 05:40:23;;;;;;;7.45;6.63;;;11.50;75.80;;;;;;20763776;28;20025;-59
2021/04/03 05:50:24;;;;;;;11.07;7.43;;;11.60;75.20;;;;;;20764025;28;20478;-58
2021/04/03 06:00:25;;;;;;;6.63;4.82;;;11.70;74.80;;;;;;20762783;28;20095;-60
2021/04/03 06:10:26;;;;;;;8.32;5.18;;;11.70;74.10;;;;;;20762039;28;20129;-58
2021/04/03 06:20:34;;;;;;;6.90;5.43;;;11.70;73.40;;;;;;20761229;28;20076;-54
2021/04/03 06:30:37;;;;;;;11.23;6.38;;;11.60;74.30;;;;;;20760209;28;20393;-55
2021/04/03 06:40:38;;;;;;;11.98;6.80;;;11.50;74.10;;;;;;20758020;28;20034;-54
2021/04/03 06:50:44;;;;;;;8.10;5.47;;;11.30;73.90;;;;;;20758587;28;20480;-59
2021/04/03 07:00:48;;;;;;;9.18;6.22;;;11.60;73.10;;;;;;20756808;28;20490;-59
2021/04/03 07:10:52;;;;;;;11.87;8.10;;;11.80;71.60;;;;;;20757442;28;20513;-60
2021/04/03 07:20:53;;;;;;;14.30;8.20;;;11.80;71.30;;;;;;20756488;28;20485;-55
2021/04/03 07:30:54;;;;;;;12.48;8.10;;;;;;;;;;20755820;28;20143;-59
2021/04/03 07:40:58;;;;;;;10.52;6.85;;;12.50;70.90;;;;;;20754507;28;20022;-59
2021/04/03 07:50:59;;;;;;;13.88;7.65;;;12.80;69.50;;;;;;20753906;28;20038;-58
2021/04/03 08:01:08;;;;;;;14.68;8.45;;;13.10;68.60;;;;;;20752292;28;20022;-57
2021/04/03 08:11:12;;;;;;;14.27;8.25;;;13.30;67.70;;;;;;20751314;28;20398;-59
2021/04/03 08:21:13;;;;;;;13.60;8.27;;;13.50;67.60;;;;;;20750687;28;20052;-58
2021/04/03 08:31:14;;;;;;;15.10;8.38;;;;;;;;;;20750227;28;20104;-58
2021/04/03 08:41:24;;;;;;;15.45;8.77;;;15.70;61.30;;;;;;20749767;28;20026;-59
2021/04/03 08:51:26;;;;;;;13.45;8.68;;;15.70;61.30;;;;;;20749421;28;20117;-59
2021/04/03 09:01:32;;;;;;;12.35;9.18;;;15.00;62.70;;;;;;20748818;28;20038;-60
2021/04/03 09:11:33;;;;;;;20.48;10.50;;;15.40;62.50;;;;;;20748415;28;20511;-60
2021/04/03 09:21:43;;;;;;;13.65;9.50;;;15.80;61.10;;;;;;20748941;28;20045;-60
2021/04/03 09:31:45;;;;;;;6.03;3.83;;;;;;;;;;20665538;28;20042;-54
2021/04/03 09:41:47;;;;;;;19.05;11.20;;;;;;;;;;20747590;28;20496;-56
2021/04/03 09:51:48;;;;;;;17.33;10.50;;;;;;;;;;20746887;28;20042;-56
2021/04/03 10:01:49;;;;;;;13.00;9.30;;;;;;;;;;20746452;28;20057;-56
2021/04/03 10:11:52;;;;;;;10.88;8.23;;;;;;;;;;20745977;28;20037;-56
2021/04/03 10:21:53;;;;;;;14.32;8.07;;;;;;;;;;20752825;28;20028;-57
2021/04/03 10:31:54;;;;;;;17.23;10.68;;;;;;;;;;20760372;28;20069;-57
2021/04/03 10:41:55;;;;;;;15.55;11.63;;;;;;;;;;20759254;28;20022;-58
2021/04/03 10:51:56;;;;;;;13.10;10.23;;;;;;;;;;20758761;28;20069;-58
2021/04/03 11:01:57;;;;;;;16.75;10.18;;;19.00;51.70;;;;;;20757807;28;20026;-56
2021/04/03 11:11:58;;;;;;;16.70;9.32;;;18.30;53.30;;;;;;20756519;28;20465;-56
2021/04/03 11:21:58;;;;;;;13.70;8.82;;;18.10;53.70;;;;;;20756656;28;20026;-57
2021/04/03 11:31:59;;;;;;;11.18;7.47;;;18.10;52.90;;;;;;20755804;28;20117;-57
2021/04/03 11:42:00;;;;;;;16.40;5.90;;;18.60;49.80;;;;;;20754748;28;20458;-57
2021/04/03 11:52:02;;;;;;;10.35;4.18;;;18.90;47.50;;;;;;20754019;28;20389;-57
2021/04/03 12:02:03;;;;;;;8.50;3.40;;;19.30;41.70;;;;;;20753828;28;20022;-57
2021/04/03 12:12:05;;;;;;;10.65;4.30;;;19.30;41.10;;;;;;20752387;28;20046;-57
2021/04/03 12:22:06;;;;;;;14.63;3.83;;;19.50;41.90;;;;;;20752046;28;20124;-57
2021/04/03 12:32:07;;;;;;;10.23;3.95;;;19.80;40.50;;;;;;20750285;28;20073;-56
2021/04/03 12:42:08;;;;;;;10.65;4.45;;;19.90;40.40;;;;;;20749752;28;20105;-56
2021/04/03 12:52:12;;;;;;;11.05;4.28;;;20.20;40.30;;;;;;20732844;28;20413;-55
2021/04/03 13:02:12;;;;;;;11.50;3.80;;;20.20;40.30;;;;;;20750193;28;20064;-57
2021/04/03 13:12:14;;;;;;;11.20;3.95;;;20.30;38.70;;;;;;20748774;28;20046;-55
2021/04/03 13:22:16;;;;;;;13.70;3.97;;;20.50;38.40;;;;;;20748197;28;20038;-57
2021/04/03 13:32:18;;;;;;;9.20;3.92;;;20.60;37.80;;;;;;20748458;28;20045;-57
2021/04/03 13:42:18;;;;;;;12.05;4.07;;;20.60;39.30;;;;;;20748165;28;20113;-56
2021/04/03 13:52:19;;;;;;;13.70;4.38;;;20.60;38.60;;;;;;20748622;28;20438;-56
2021/04/03 14:02:21;;;;;;;12.50;4.00;;;20.60;37.70;;;;;;20764268;28;20374;-56
2021/04/03 14:12:21;;;;;;;7.35;3.35;;;20.60;37.20;;;;;;20762839;28;20095;-56
2021/04/03 14:22:22;;;;;;;9.25;3.08;;;20.70;36.40;;;;;;20761913;28;20081;-56
2021/04/03 14:32:24;;;;;;;8.93;3.13;;;;;;;;;;20760894;28;20056;-57
2021/04/03 14:42:25;;;;;;;8.75;3.17;;;;;;;;;;20760092;28;20552;-56
2021/04/03 14:52:27;;;;;;;10.45;3.08;;;;;;;;;;20742284;28;20041;-56
2021/04/03 15:02:28;;;;;;;9.52;2.50;;;;;;;;;;20758958;28;20026;-56
2021/04/03 15:12:28;;;;;;;9.32;2.50;;;22.90;29.10;;;;;;20757556;28;20038;-56
2021/04/03 15:22:29;;;;;;;6.00;2.80;;;22.80;29.00;;;;;;20757181;28;20508;-55
2021/04/03 15:32:30;;;;;;;8.30;2.90;;;22.00;29.60;;;;;;20756329;28;20493;-56
2021/04/03 15:42:31;;;;;;;7.47;3.20;;;21.70;31.50;;;;;;20752909;28;20034;-55
2021/04/03 15:52:31;;;;;;;22.92;5.00;;;21.20;32.70;;;;;;20754495;28;20034;-56
2021/04/03 16:02:33;;;;;;;12.38;4.28;;;;;;;;;;20753783;28;20053;-57
2021/04/03 16:12:33;;;;;;;12.95;4.03;;;19.40;49.60;;;;;;20753063;28;20042;-57
2021/04/03 16:22:34;;;;;;;12.68;5.05;;;18.30;58.90;;;;;;20751702;28;20092;-56
2021/04/03 16:32:35;;;;;;;19.73;6.60;;;17.80;61.60;;;;;;20750732;28;20030;-55
2021/04/03 16:42:36;;;;;;;16.30;4.82;;;17.70;63.00;;;;;;20750340;28;20018;-56
2021/04/03 16:52:37;;;;;;;18.20;5.03;;;17.60;58.60;;;;;;20749889;28;20044;-55
2021/04/03 17:02:37;;;;;;;19.40;5.57;;;17.80;56.40;;;;;;20749270;28;20071;-56
2021/04/03 17:12:38;;;;;;;17.27;4.90;;;18.10;53.50;;;;;;20748595;28;20053;-58
2021/04/03 17:22:39;;;;;;;15.95;4.43;;;18.30;57.80;;;;;;20749210;28;20053;-57
2021/04/03 17:32:44;;;;;;;16.35;5.53;;;18.30;56.50;;;;;;20767646;28;20030;-57
2021/04/03 17:42:45;;;;;;;17.27;5.43;;;18.10;56.60;;;;;;20774785;28;20034;-56
2021/04/03 17:52:47;;;;;;;13.57;4.88;;;17.70;57.50;;;;;;20774649;28;20080;-57
2021/04/03 18:02:48;;;;;;;15.07;5.57;;;17.70;56.50;;;;;;20774298;28;20116;-56
2021/04/03 18:12:49;;;;;;;11.55;4.68;;;17.60;57.20;;;;;;20773751;28;20034;-56
2021/04/03 18:22:51;;;;;;;15.15;6.70;;;17.40;55.60;;;;;;20773225;28;20504;-57
2021/04/03 18:32:52;;;;;;;15.43;4.90;;;17.30;57.00;;;;;;20772582;28;20033;-57
2021/04/03 18:42:54;;;;;;;14.30;5.32;;;17.20;57.90;;;;;;20762878;28;20119;-57
2021/04/03 18:52:56;;;;;;;12.57;5.38;;;17.00;58.10;;;;;;20759027;28;20030;-59
2021/04/03 19:02:57;;;;;;;14.77;5.05;;;;;;;;;;20758302;28;20087;-56
2021/04/03 19:12:58;;;;;;;13.02;4.35;;;;;;;;;;20757457;28;20034;-56
2021/04/03 19:22:59;;;;;;;18.55;5.15;;;;;;;;;;20756852;28;20061;-57
2021/04/03 19:33:00;;;;;;;14.07;5.00;;;;;;;;;;20756016;28;20037;-56
2021/04/03 19:43:01;;;;;;;23.08;9.95;;;;;;;;;;20754984;28;20041;-57
2021/04/03 19:53:02;;;;;;;14.20;5.90;;;;;;;;;;20752619;28;20482;-57
2021/04/03 20:03:03;;;;;;;16.25;6.03;;;;;;;;;;20753412;28;20033;-57
2021/04/03 20:13:05;;;;;;;15.73;5.07;;;;;;;;;;20752427;28;20037;-57
2021/04/03 20:23:06;;;;;;;20.05;6.18;;;;;;;;;;20751314;28;20056;-58
2021/04/03 20:33:07;;;;;;;16.17;6.70;;;;;;;;;;20751047;28;20042;-58
2021/04/03 20:43:08;;;;;;;16.13;7.15;;;;;;;;;;20749795;28;20040;-57
2021/04/03 20:53:10;;;;;;;16.92;8.98;;;;;;;;;;20750417;28;20042;-57
2021/04/03 21:03:11;;;;;;;22.92;10.20;;;;;;;;;;20748782;28;20524;-57
2021/04/03 21:13:12;;;;;;;18.98;9.93;;;;;;;;;;20748326;28;20105;-56
2021/04/03 21:23:14;;;;;;;22.77;10.10;;;;;;;;;;20748018;28;20045;-56
2021/04/03 21:33:14;;;;;;;21.92;10.80;;;16.60;59.80;;;;;;20748072;28;20379;-56
2021/04/03 21:43:15;;;;;;;27.15;11.75;;;16.10;61.30;;;;;;20747128;28;20022;-56
2021/04/03 21:53:16;;;;;;;34.63;12.20;;;15.60;64.10;;;;;;20746841;28;20113;-56
2021/04/03 22:03:19;;;;;;;26.05;8.98;;;15.60;64.70;;;;;;20746557;28;20477;-55
2021/04/03 22:13:19;;;;;;;19.75;10.20;;;15.20;64.80;;;;;;20746606;28;20038;-56
2021/04/03 22:23:20;;;;;;;18.88;8.57;;;15.10;66.10;;;;;;20761124;28;20561;-56
2021/04/03 22:33:21;;;;;;;21.80;9.27;;;15.00;67.10;;;;;;20760143;28;20034;-57
2021/04/03 22:43:22;;;;;;;18.02;8.57;;;14.90;66.80;;;;;;20758062;28;20038;-56
2021/04/03 22:53:24;;;;;;;23.73;9.00;;;14.80;67.40;;;;;;20759196;28;20034;-57
2021/04/03 23:03:25;;;;;;;18.60;8.63;;;14.60;68.60;;;;;;20759694;28;20022;-56
2021/04/03 23:13:26;;;;;;;20.65;8.93;;;14.60;68.60;;;;;;20758034;28;20034;-55
2021/04/03 23:23:27;;;;;;;21.10;8.45;;;14.50;67.90;;;;;;20756915;28;20132;-55
2021/04/03 23:33:28;;;;;;;13.35;5.10;;;14.40;67.30;;;;;;20756032;28;20038;-56
2021/04/03 23:43:29;;;;;;;12.02;3.97;;;14.50;60.10;;;;;;20755833;28;20025;-56
2021/04/03 23:53:29;;;;;;;14.13;4.55;;;14.70;51.10;;;;;;20754869;28;20041;-55
